Time;durP1;ratioP1;P1;durP2;ratioP2;P2;SDS_P1;SDS_P2;PMS_P1;PMS_P2;Temp;Humidity;BMP_temperature;BMP_pressure;BME280_temperature;BME280_humidity;BME280_pressure;Samples;Min_cycle;Max_cycle;Signal;HPM_P1;HPM_P2
2023/03/14 00:01:20;;;;;;;16.63;9.85;;;;;;;5.66;46.96;101460.72;5010903;28;21152;-78
2023/03/14 00:03:45;;;;;;;14.88;9.30;;;;;;;5.68;46.54;101462.25;5013347;28;20918;-78
2023/03/14 00:06:12;;;;;;;12.55;9.48;;;;;;;5.75;46.25;101452.94;5012029;28;20399;-78
2023/03/14 00:08:38;;;;;;;13.15;9.73;;;;;;;5.80;46.03;101438.56;5012706;28;20396;-78
2023/03/14 00:11:06;;;;;;;19.42;11.80;;;;;;;5.85;45.75;101439.06;5012077;28;20396;-78
2023/03/14 00:13:31;;;;;;;19.17;11.85;;;;;;;5.91;45.81;101438.59;5013840;28;20430;-79
2023/03/14 00:16:02;;;;;;;19.50;11.40;;;;;;;5.84;46.03;101432.97;5013063;28;20744;-78
2023/03/14 00:18:28;;;;;;;17.63;11.20;;;;;;;5.74;46.29;101445.16;5013186;28;20399;-78
2023/03/14 00:20:53;;;;;;;17.40;11.80;;;;;;;5.65;46.86;101446.72;5012760;28;20466;-78
2023/03/14 00:23:19;;;;;;;24.50;14.77;;;;;;;5.58;46.82;101439.44;5013446;28;20396;-78
2023/03/14 00:25:44;;;;;;;19.67;14.67;;;;;;;5.46;46.87;101436.81;5011828;28;20420;-78
2023/03/14 00:28:10;;;;;;;18.73;14.20;;;;;;;5.41;47.34;101436.31;5012610;28;20756;-78
2023/03/14 00:30:37;;;;;;;13.88;10.68;;;;;;;5.33;47.59;101434.28;5012134;28;20454;-78
2023/03/14 00:33:03;;;;;;;17.63;11.23;;;;;;;5.31;47.38;101430.94;5012293;28;20399;-78
2023/03/14 00:35:28;;;;;;;13.63;10.37;;;;;;;5.26;47.50;101429.63;5012518;28;20384;-79
2023/03/14 00:37:54;;;;;;;14.50;10.33;;;;;;;5.11;47.48;101421.97;5010790;28;20492;-78
2023/03/14 00:40:19;;;;;;;15.80;9.48;;;;;;;5.12;47.97;101418.34;5012190;28;20435;-78
2023/03/14 00:42:45;;;;;;;12.68;9.38;;;;;;;5.11;47.65;101411.44;5028342;28;20729;-78
2023/03/14 00:45:10;;;;;;;12.70;9.60;;;;;;;5.17;47.63;101424.09;5012553;28;20423;-78
2023/03/14 00:47:36;;;;;;;15.03;10.77;;;;;;;5.09;47.55;101417.75;5012020;28;20769;-77
2023/03/14 00:50:02;;;;;;;15.10;10.07;;;;;;;5.11;47.40;101408.81;5010806;28;20688;-77
2023/03/14 00:52:27;;;;;;;13.02;9.50;;;;;;;5.13;47.39;101406.03;5010026;28;20396;-78
2023/03/14 00:54:53;;;;;;;14.97;9.67;;;;;;;5.05;47.93;101411.06;5010344;28;20392;-78
2023/03/14 00:57:18;;;;;;;14.45;10.45;;;;;;;4.90;48.25;101415.69;5010781;28;20412;-77
2023/03/14 00:59:43;;;;;;;14.13;9.87;;;;;;;4.70;48.28;101420.66;5011673;28;20470;-77
2023/03/14 01:02:09;;;;;;;15.50;10.87;;;;;;;4.65;48.81;101429.84;5009808;28;20399;-77
2023/03/14 01:04:34;;;;;;;14.50;10.00;;;;;;;4.34;49.35;101430.28;5010480;28;20403;-77
2023/03/14 01:07:00;;;;;;;17.77;11.65;;;;;;;4.30;49.83;101433.25;5009954;28;20502;-77
2023/03/14 01:09:25;;;;;;;15.73;11.03;;;;;;;4.20;49.90;101433.06;5010208;28;20730;-77
2023/03/14 01:11:51;;;;;;;17.37;11.23;;;;;;;4.01;50.69;101431.75;5010710;28;20419;-77
2023/03/14 01:14:16;;;;;;;16.57;11.40;;;;;;;3.91;50.63;101436.00;5010025;28;20477;-77
2023/03/14 01:16:41;;;;;;;12.63;9.73;;;;;;;3.99;50.41;101438.06;5010897;28;21118;-77
2023/03/14 01:19:07;;;;;;;17.17;10.67;;;;;;;4.10;50.40;101425.00;5011250;28;21482;-78
2023/03/14 01:21:35;;;;;;;13.83;9.77;;;;;;;4.13;49.98;101429.22;5011137;28;20453;-78
2023/03/14 01:24:02;;;;;;;14.77;9.80;;;;;;;4.06;50.61;101428.81;4999096;28;20907;-78
2023/03/14 01:26:30;;;;;;;12.10;8.77;;;;;;;4.15;49.80;101428.16;5011900;28;20504;-78
2023/03/14 01:28:56;;;;;;;12.95;9.00;;;;;;;4.00;50.35;101424.84;5010114;28;20884;-78
2023/03/14 01:31:23;;;;;;;9.98;7.70;;;;;;;3.91;50.39;101424.69;5009382;28;20446;-77
2023/03/14 01:33:49;;;;;;;14.00;9.18;;;;;;;3.80;51.05;101421.03;5009155;28;20417;-77
2023/03/14 01:36:15;;;;;;;11.80;8.18;;;;;;;3.63;51.32;101416.13;5009921;28;20394;-77
2023/03/14 01:38:41;;;;;;;13.60;8.70;;;;;;;3.47;51.84;101426.81;5008381;28;20402;-77
2023/03/14 01:41:11;;;;;;;14.27;7.93;;;;;;;3.37;52.09;101431.88;5011997;28;20392;-77
2023/03/14 01:43:37;;;;;;;9.75;7.32;;;;;;;3.34;52.14;101429.47;5009733;28;20417;-77
2023/03/14 01:46:05;;;;;;;11.55;8.02;;;;;;;3.40;52.15;101417.72;4995803;28;20804;-77
2023/03/14 01:48:53;;;;;;;11.93;8.10;;;;;;;3.46;51.85;101412.06;5010777;28;20399;-77
2023/03/14 01:51:48;;;;;;;12.02;8.23;;;;;;;3.68;51.39;101403.53;5011001;28;20392;-77
2023/03/14 01:54:41;;;;;;;11.05;7.95;;;;;;;3.80;51.13;101396.59;4987621;28;20400;-78
2023/03/14 01:57:14;;;;;;;12.35;7.70;;;;;;;3.86;50.46;101385.66;5003575;28;20396;-78
2023/03/14 01:59:42;;;;;;;11.63;7.97;;;;;;;3.84;50.41;101382.31;5007450;28;20462;-77
2023/03/14 02:02:11;;;;;;;11.73;8.20;;;;;;;3.87;50.67;101382.09;5010063;28;21019;-78
2023/03/14 02:04:38;;;;;;;12.07;8.55;;;;;;;3.86;50.88;101383.03;5009593;28;20400;-78
2023/03/14 02:07:16;;;;;;;12.80;7.80;;;;;;;3.82;50.66;101386.81;5009518;28;20399;-77
2023/03/14 02:09:43;;;;;;;11.30;7.72;;;;;;;3.71;51.17;101379.72;5007002;28;20396;-78
2023/03/14 02:12:11;;;;;;;12.48;8.30;;;;;;;3.64;51.36;101376.69;5008862;28;20416;-78
2023/03/14 02:14:37;;;;;;;10.02;7.85;;;;;;;3.49;52.22;101383.00;5008906;28;20403;-77
2023/03/14 02:17:06;;;;;;;11.32;8.10;;;;;;;3.46;52.48;101372.75;5013819;28;20462;-77
2023/03/14 02:19:56;;;;;;;11.38;8.30;;;;;;;3.49;52.25;101366.44;5013808;28;20392;-77
2023/03/14 02:22:22;;;;;;;13.30;9.27;;;;;;;3.57;52.34;101362.34;5014008;28;20483;-77
2023/03/14 02:25:07;;;;;;;15.98;9.75;;;;;;;3.77;51.82;101374.03;5013976;28;20499;-77
2023/03/14 02:27:34;;;;;;;16.63;9.52;;;;;;;4.06;50.91;101363.22;5012072;28;20442;-77
2023/03/14 02:30:11;;;;;;;12.32;8.80;;;;;;;4.17;50.38;101363.28;5012985;28;21516;-77
2023/03/14 02:32:40;;;;;;;12.23;9.27;;;;;;;4.17;50.16;101360.66;5012241;28;20424;-77
2023/03/14 02:35:10;;;;;;;13.07;10.15;;;;;;;4.10;50.67;101363.84;5008755;28;20954;-77
2023/03/14 02:37:41;;;;;;;14.13;10.38;;;;;;;4.05;50.76;101358.91;5011531;28;20395;-78
2023/03/14 02:40:09;;;;;;;15.07;10.50;;;;;;;4.19;50.16;101353.50;4998097;28;20411;-77
2023/03/14 02:42:34;;;;;;;12.68;8.77;;;;;;;4.35;49.93;101358.44;5013600;28;20594;-78
2023/03/14 02:45:20;;;;;;;12.25;8.65;;;;;;;4.23;49.99;101348.84;5013855;28;20503;-78
2023/03/14 02:47:55;;;;;;;14.30;9.90;;;;;;;4.14;50.51;101347.78;5009922;28;20414;-77
2023/03/14 02:50:24;;;;;;;14.68;10.30;;;;;;;4.16;50.34;101353.75;5013045;28;20396;-77
2023/03/14 02:52:49;;;;;;;12.73;8.90;;;;;;;4.25;50.07;101354.00;5013347;28;20736;-77
2023/03/14 02:55:19;;;;;;;13.02;9.18;;;;;;;4.44;49.96;101354.31;5013545;28;20864;-78
2023/03/14 02:57:45;;;;;;;17.30;10.65;;;;;;;4.31;49.96;101354.38;5013286;28;20400;-77
2023/03/14 03:00:11;;;;;;;17.07;10.70;;;;;;;4.34;49.62;101364.66;5014407;28;20403;-78
2023/03/14 03:02:36;;;;;;;15.80;10.65;;;;;;;4.32;49.91;101356.06;5015975;28;20449;-79
2023/03/14 03:05:02;;;;;;;14.40;10.67;;;;;;;4.43;49.92;101357.06;5016552;28;20408;-78
2023/03/14 03:07:27;;;;;;;16.35;11.43;;;;;;;4.47;49.51;101353.25;5028655;28;20391;-78
2023/03/14 03:09:53;;;;;;;17.08;12.45;;;;;;;4.37;50.12;101353.91;5034558;28;20407;-78
2023/03/14 03:12:18;;;;;;;15.93;11.53;;;;;;;4.36;49.96;101354.88;5035029;28;20442;-78
2023/03/14 03:14:44;;;;;;;18.37;12.00;;;;;;;4.39;49.45;101346.78;5029128;28;20430;-78
2023/03/14 03:17:09;;;;;;;20.17;13.03;;;;;;;4.48;49.25;101350.50;5018437;28;20469;-78
2023/03/14 03:19:35;;;;;;;19.20;13.57;;;;;;;4.43;49.49;101357.91;5012289;28;20383;-78
2023/03/14 03:22:00;;;;;;;17.63;12.88;;;;;;;4.31;50.26;101374.56;5017162;28;20494;-78
2023/03/14 03:24:26;;;;;;;23.55;16.92;;;;;;;4.24;50.02;101362.84;5015874;28;20485;-78
2023/03/14 03:26:53;;;;;;;16.75;11.60;;;;;;;4.33;49.86;101367.41;5014970;28;20414;-78
2023/03/14 03:29:18;;;;;;;15.60;11.00;;;;;;;4.33;50.11;101377.91;5015840;28;20396;-78
2023/03/14 03:31:45;;;;;;;17.67;11.47;;;;;;;4.28;49.98;101375.59;5015308;28;20475;-78
2023/03/14 03:34:12;;;;;;;14.85;10.23;;;;;;;4.23;50.30;101372.47;5013408;28;20845;-78
2023/03/14 03:36:37;;;;;;;13.98;10.38;;;;;;;4.23;50.55;101372.47;5013461;28;20392;-78
2023/03/14 03:39:03;;;;;;;13.43;9.50;;;;;;;4.31;49.81;101374.56;5012884;28;20406;-78
2023/03/14 03:41:29;;;;;;;12.10;8.98;;;;;;;4.32;49.65;101366.56;5012932;28;20872;-78
2023/03/14 03:43:55;;;;;;;12.57;9.75;;;;;;;4.30;49.41;101367.63;5015235;28;20388;-79
2023/03/14 03:46:21;;;;;;;13.93;9.82;;;;;;;4.36;49.50;101370.63;5012800;28;20868;-78
2023/03/14 03:48:46;;;;;;;16.27;9.80;;;;;;;4.36;49.63;101365.38;5012871;28;20400;-77
2023/03/14 03:51:13;;;;;;;15.98;10.98;;;;;;;4.36;49.58;101364.56;5012294;28;20395;-77
2023/03/14 03:53:40;;;;;;;14.77;10.38;;;;;;;4.35;49.71;101362.88;5012410;28;20388;-77
2023/03/14 03:56:06;;;;;;;13.80;10.23;;;;;;;4.34;49.31;101355.94;5011929;28;20556;-77
2023/03/14 03:58:31;;;;;;;16.67;11.48;;;;;;;4.21;49.63;101359.50;5011809;28;20880;-78
2023/03/14 04:00:56;;;;;;;16.67;10.30;;;;;;;4.14;49.57;101362.66;5012289;28;20396;-77
2023/03/14 04:03:22;;;;;;;17.77;13.27;;;;;;;4.09;49.98;101360.38;5012035;28;20392;-78
2023/03/14 04:06:01;;;;;;;28.80;19.92;;;;;;;4.01;49.90;101366.16;5011922;28;20967;-77
2023/03/14 04:08:27;;;;;;;16.23;12.27;;;;;;;4.03;50.30;101363.44;5001606;28;20495;-78
2023/03/14 04:11:01;;;;;;;17.47;11.77;;;;;;;4.10;49.89;101363.84;5012785;28;20476;-78
2023/03/14 04:13:27;;;;;;;14.73;10.50;;;;;;;3.97;50.08;101356.84;5013109;28;20395;-78
2023/03/14 04:15:53;;;;;;;17.52;12.00;;;;;;;4.01;49.82;101345.19;5012810;28;20864;-78
2023/03/14 04:18:19;;;;;;;23.20;12.25;;;;;;;4.03;49.88;101350.31;5013506;28;20396;-78
2023/03/14 04:20:45;;;;;;;14.98;10.55;;;;;;;4.01;49.74;101350.44;5012777;28;20403;-76
2023/03/14 04:23:11;;;;;;;14.80;11.07;;;;;;;4.09;49.74;101341.16;5012431;28;20396;-77
2023/03/14 04:25:37;;;;;;;14.85;10.00;;;;;;;4.04;49.73;101338.88;5010664;28;20765;-77
2023/03/14 04:28:03;;;;;;;16.42;11.10;;;;;;;3.96;49.90;101342.09;5011450;28;20749;-77
2023/03/14 04:30:29;;;;;;;14.10;9.77;;;;;;;3.94;49.90;101338.75;5011508;28;20799;-77
2023/03/14 04:32:55;;;;;;;16.80;9.80;;;;;;;3.95;49.48;101335.16;5011205;28;20884;-78
2023/03/14 04:35:20;;;;;;;16.42;11.80;;;;;;;3.88;49.66;101333.91;5010747;28;20395;-77
2023/03/14 04:37:48;;;;;;;19.58;14.85;;;;;;;3.64;50.61;101345.22;5010364;28;20890;-77
2023/03/14 04:40:15;;;;;;;16.95;12.00;;;;;;;3.47;51.28;101357.84;4995035;28;20422;-77
2023/03/14 04:42:40;;;;;;;15.77;10.30;;;;;;;3.17;51.80;101348.53;5010786;28;20400;-75
2023/03/14 04:45:07;;;;;;;17.93;11.03;;;;;;;2.95;52.78;101349.19;5010530;28;20462;-76
2023/03/14 04:47:32;;;;;;;19.25;11.90;;;;;;;2.91;52.71;101345.13;5010155;28;20930;-76
2023/03/14 04:49:58;;;;;;;19.17;12.30;;;;;;;2.90;52.91;101359.13;5010350;28;20393;-77
2023/03/14 04:52:23;;;;;;;21.03;12.10;;;;;;;3.00;52.58;101368.06;5009392;28;20396;-77
2023/03/14 04:54:49;;;;;;;18.33;12.10;;;;;;;2.94;52.50;101366.69;5011017;28;20857;-77
2023/03/14 04:57:14;;;;;;;18.73;12.00;;;;;;;2.94;52.47;101373.72;5011430;28;20404;-79
2023/03/14 04:59:40;;;;;;;17.60;11.00;;;;;;;2.98;52.35;101372.56;5011016;28;21040;-77
2023/03/14 05:02:05;;;;;;;22.27;12.37;;;;;;;3.01;52.40;101367.94;5010719;28;20401;-78
2023/03/14 05:04:32;;;;;;;18.53;11.23;;;;;;;3.10;52.06;101370.88;5010843;28;20388;-76
2023/03/14 05:06:58;;;;;;;18.38;11.95;;;;;;;3.20;51.79;101369.31;5014878;28;20388;-78
2023/03/14 05:09:23;;;;;;;17.70;11.23;;;;;;;3.25;51.67;101359.34;5028207;28;20372;-78
2023/03/14 05:11:49;;;;;;;14.13;9.33;;;;;;;3.19;51.74;101359.78;5027772;28;20431;-79
2023/03/14 05:14:14;;;;;;;17.60;10.87;;;;;;;3.19;52.19;101371.09;5024973;28;20431;-78
2023/03/14 05:16:42;;;;;;;16.90;10.90;;;;;;;3.28;51.87;101359.16;5016586;28;20426;-78
2023/03/14 05:19:07;;;;;;;17.90;11.40;;;;;;;3.38;51.63;101346.22;5015600;28;21052;-78
2023/03/14 05:21:33;;;;;;;19.77;12.33;;;;;;;3.42;51.79;101340.66;5015602;28;20399;-77
2023/03/14 05:23:58;;;;;;;19.07;11.67;;;;;;;3.59;51.58;101341.25;5012822;28;20431;-78
2023/03/14 05:26:24;;;;;;;19.73;11.73;;;;;;;3.64;51.04;101334.75;5010581;28;20791;-79
2023/03/14 05:28:49;;;;;;;20.48;11.68;;;;;;;3.70;51.32;101328.22;5008928;28;20403;-78
2023/03/14 05:31:15;;;;;;;19.52;12.27;;;;;;;3.89;50.99;101330.34;5010807;28;20406;-78
2023/03/14 05:33:40;;;;;;;23.80;13.13;;;;;;;3.96;50.90;101323.72;5019742;28;20401;-78
2023/03/14 05:36:08;;;;;;;22.00;12.23;;;;;;;4.08;51.06;101331.63;5046882;28;20456;-78
2023/03/14 05:38:33;;;;;;;20.55;11.73;;;;;;;4.15;50.68;101335.47;5019775;28;20390;-79
2023/03/14 05:40:59;;;;;;;26.73;14.07;;;;;;;4.27;50.51;101336.34;5020694;28;20419;-77
2023/03/14 05:43:24;;;;;;;31.27;17.10;;;;;;;4.39;50.35;101335.44;5021147;28;20390;-79
2023/03/14 05:45:50;;;;;;;28.60;15.70;;;;;;;4.47;50.28;101335.72;5031144;28;20433;-79
2023/03/14 05:48:16;;;;;;;25.00;14.50;;;;;;;4.59;50.42;101332.19;5009513;28;20388;-78
2023/03/14 05:50:42;;;;;;;22.20;14.60;;;;;;;4.65;50.17;101333.50;5010722;28;20395;-78
2023/03/14 05:53:07;;;;;;;22.15;13.90;;;;;;;4.71;50.04;101329.56;5015882;28;20390;-78
2023/03/14 05:55:33;;;;;;;22.42;13.18;;;;;;;4.80;50.08;101334.09;5013624;28;20392;-79
2023/03/14 05:57:58;;;;;;;29.10;15.30;;;;;;;4.73;50.37;101346.88;5011383;28;20395;-76
2023/03/14 06:00:24;;;;;;;25.13;14.07;;;;;;;4.65;49.97;101338.75;5011114;28;20392;-78
2023/03/14 06:02:49;;;;;;;24.88;13.95;;;;;;;4.68;50.66;101345.53;5044751;28;20422;-78
2023/03/14 06:05:15;;;;;;;19.60;12.52;;;;;;;4.68;50.55;101341.16;5031951;28;20505;-76
2023/03/14 06:07:40;;;;;;;20.87;12.20;;;;;;;4.60;50.30;101346.13;5031669;28;20432;-78
2023/03/14 06:10:06;;;;;;;36.00;16.07;;;;;;;4.66;50.32;101337.78;5031457;28;20382;-78
2023/03/14 06:12:32;;;;;;;38.23;21.90;;;;;;;4.82;50.35;101329.56;5029803;28;20434;-78
2023/03/14 06:14:57;;;;;;;21.90;13.23;;;;;;;4.91;49.53;101326.25;5027118;28;20405;-77
2023/03/14 06:17:23;;;;;;;60.23;44.53;;;;;;;5.03;49.40;101327.09;5045656;28;20405;-76
2023/03/14 06:19:48;;;;;;;29.80;17.25;;;;;;;5.06;49.91;101320.75;5029616;28;20382;-77
2023/03/14 06:22:14;;;;;;;24.03;13.13;;;;;;;5.20;49.38;101319.69;5024772;28;20392;-79
2023/03/14 06:24:41;;;;;;;29.23;14.77;;;;;;;5.40;49.02;101331.25;5023476;28;20858;-77
2023/03/14 06:27:06;;;;;;;24.63;14.73;;;;;;;5.55;49.12;101330.06;5025188;28;20483;-77
2023/03/14 06:29:32;;;;;;;27.43;14.80;;;;;;;5.72;48.79;101326.06;5024216;28;20838;-79
2023/03/14 06:31:57;;;;;;;26.00;16.13;;;;;;;5.86;48.75;101319.72;5032768;28;20390;-81
2023/03/14 06:34:23;;;;;;;23.27;14.73;;;;;;;5.96;48.57;101325.06;5021087;28;20402;-78
2023/03/14 06:36:48;;;;;;;21.88;14.10;;;;;;;5.96;48.53;101322.44;5011267;28;20388;-77
2023/03/14 06:39:14;;;;;;;24.03;13.37;;;;;;;6.04;47.98;101328.75;5011677;28;20498;-76
2023/03/14 06:41:39;;;;;;;19.77;13.63;;;;;;;6.06;48.35;101332.09;5016782;28;20847;-77
2023/03/14 06:44:05;;;;;;;22.50;14.48;;;;;;;6.02;48.21;101338.59;5028153;28;20388;-80
2023/03/14 06:46:30;;;;;;;22.30;13.70;;;;;;;6.10;48.42;101319.53;5012435;28;20408;-79
2023/03/14 06:48:56;;;;;;;16.17;12.13;;;;;;;6.21;48.33;101324.75;5020980;28;20394;-76
2023/03/14 06:51:21;;;;;;;23.80;13.27;;;;;;;6.26;47.92;101325.19;5029391;28;20378;-78
2023/03/14 06:53:47;;;;;;;21.60;13.23;;;;;;;6.38;48.11;101323.34;5023969;28;20440;-78
2023/03/14 06:56:12;;;;;;;20.08;12.32;;;;;;;6.48;47.94;101328.69;5051646;28;20390;-78
2023/03/14 06:58:38;;;;;;;18.33;11.70;;;;;;;6.66;47.22;101327.16;5051793;28;20418;-77
2023/03/14 07:01:03;;;;;;;21.50;12.60;;;;;;;6.82;47.22;101336.38;5047236;28;20445;-79
2023/03/14 07:03:29;;;;;;;21.45;13.15;;;;;;;6.80;47.33;101328.59;5029260;28;20384;-77
2023/03/14 07:05:55;;;;;;;18.05;12.07;;;;;;;6.96;47.24;101328.13;5028595;28;20409;-77
2023/03/14 07:08:20;;;;;;;18.30;12.23;;;;;;;7.15;46.87;101327.41;5030292;28;20469;-78
2023/03/14 07:10:46;;;;;;;19.37;12.23;;;;;;;7.25;46.54;101320.34;5036755;28;20442;-79
2023/03/14 07:13:12;;;;;;;17.13;11.07;;;;;;;7.22;46.33;101317.13;5037203;28;20406;-79
2023/03/14 07:15:37;;;;;;;16.07;11.67;;;;;;;7.31;46.52;101319.00;5024981;28;20780;-77
2023/03/14 07:18:03;;;;;;;14.57;11.07;;;;;;;7.43;46.19;101328.47;5019527;28;20378;-78
2023/03/14 07:20:29;;;;;;;17.00;10.93;;;;;;;7.58;46.23;101321.03;5033655;28;20382;-77
2023/03/14 07:22:54;;;;;;;17.05;10.95;;;;;;;7.64;45.63;101311.72;5032878;28;20859;-77
2023/03/14 07:25:20;;;;;;;19.20;11.95;;;;;;;7.73;45.51;101310.91;5033676;28;20422;-77
2023/03/14 07:27:47;;;;;;;17.87;11.03;;;;;;;7.92;45.76;101310.06;5033147;28;20378;-78
2023/03/14 07:30:13;;;;;;;17.35;11.18;;;;;;;7.98;45.57;101296.34;5033604;28;20470;-77
2023/03/14 07:32:39;;;;;;;14.82;11.32;;;;;;;8.03;45.40;101295.91;5017301;28;20491;-77
2023/03/14 07:35:05;;;;;;;16.03;11.07;;;;;;;8.23;44.78;101307.31;5029686;28;20744;-79
2023/03/14 07:37:31;;;;;;;15.48;10.77;;;;;;;8.28;44.08;101318.28;5049300;28;20464;-78
2023/03/14 07:39:56;;;;;;;16.53;10.90;;;;;;;8.22;43.76;101309.09;5034474;28;20378;-77
2023/03/14 07:42:22;;;;;;;21.37;12.13;;;;;;;8.32;44.12;101305.63;5021119;28;20945;-75
2023/03/14 07:44:47;;;;;;;16.43;11.27;;;;;;;8.53;44.04;101297.56;5034037;28;20378;-77
2023/03/14 07:47:13;;;;;;;15.20;11.17;;;;;;;8.64;43.86;101297.41;5035602;28;20732;-77
2023/03/14 07:49:38;;;;;;;15.48;11.02;;;;;;;8.68;44.11;101290.88;5033854;28;20386;-76
2023/03/14 07:52:04;;;;;;;18.03;11.83;;;;;;;8.69;43.89;101284.59;5033592;28;20378;-77
2023/03/14 07:54:29;;;;;;;14.97;11.37;;;;;;;8.73;43.60;101280.72;5033554;28;20378;-78
2023/03/14 07:56:55;;;;;;;14.82;10.90;;;;;;;8.79;43.54;101277.47;5023928;28;20876;-77
2023/03/14 07:59:20;;;;;;;13.57;9.88;;;;;;;9.00;44.39;101260.53;5027741;28;20851;-76
2023/03/14 08:01:46;;;;;;;15.97;9.17;;;;;;;9.46;45.75;101250.84;5031802;28;20393;-79
2023/03/14 08:04:12;;;;;;;13.70;9.77;;;;;;;9.90;45.64;101248.28;5032640;28;20386;-78
2023/03/14 08:06:37;;;;;;;16.20;11.88;;;;;;;10.25;43.07;101238.63;5031190;28;20425;-78
2023/03/14 08:09:04;;;;;;;14.80;11.30;;;;;;;9.73;41.95;101238.53;5024909;28;20776;-77
2023/03/14 08:11:29;;;;;;;14.77;11.23;;;;;;;9.55;41.72;101241.16;5027789;28;21479;-78
2023/03/14 08:13:55;;;;;;;17.48;12.95;;;;;;;9.46;41.43;101234.13;5032647;28;20390;-77
2023/03/14 08:16:21;;;;;;;17.02;12.27;;;;;;;9.44;42.10;101226.34;5030622;28;20367;-76
2023/03/14 08:18:47;;;;;;;18.88;13.20;;;;;;;9.56;41.86;101232.22;5010800;28;20415;-78
2023/03/14 08:21:13;;;;;;;18.73;14.00;;;;;;;9.66;42.12;101218.94;5018487;28;20486;-78
2023/03/14 08:23:38;;;;;;;17.05;12.38;;;;;;;9.71;42.35;101228.09;5031804;28;20387;-78
2023/03/14 08:26:04;;;;;;;17.95;13.65;;;;;;;9.73;41.73;101223.47;5031162;28;20509;-77
2023/03/14 08:28:32;;;;;;;17.88;14.05;;;;;;;9.82;41.74;101219.06;5012292;28;20392;-78
2023/03/14 08:30:58;;;;;;;17.80;14.27;;;;;;;9.99;41.03;101233.28;5011854;28;20388;-76
2023/03/14 08:33:24;;;;;;;19.80;14.00;;;;;;;10.12;41.59;101228.44;5012533;28;20481;-78
2023/03/14 08:35:53;;;;;;;19.20;14.15;;;;;;;10.17;41.18;101224.47;5012670;28;20912;-77
2023/03/14 08:38:19;;;;;;;19.43;14.47;;;;;;;10.19;41.43;101215.41;5012289;28;20398;-77
2023/03/14 08:40:44;;;;;;;17.40;14.33;;;;;;;10.37;41.57;101217.19;5013165;28;20388;-77
2023/03/14 08:43:10;;;;;;;19.65;15.00;;;;;;;10.48;41.93;101206.34;5028911;28;20432;-77
2023/03/14 08:45:35;;;;;;;18.83;15.00;;;;;;;10.56;41.27;101193.13;5012221;28;20403;-79
2023/03/14 08:48:01;;;;;;;19.20;14.73;;;;;;;10.49;41.39;101187.59;5028260;28;20780;-80
2023/03/14 08:50:27;;;;;;;21.27;13.90;;;;;;;10.58;41.28;101177.06;5012738;28;20380;-78
2023/03/14 08:52:52;;;;;;;20.60;14.47;;;;;;;10.82;41.28;101187.78;5012245;28;20394;-78
2023/03/14 08:55:18;;;;;;;18.80;13.53;;;;;;;10.92;41.20;101170.91;5027422;28;20399;-77
2023/03/14 08:57:46;;;;;;;17.33;13.07;;;;;;;11.01;40.61;101183.19;5012153;28;20454;-77
2023/03/14 09:00:15;;;;;;;15.77;12.40;;;;;;;11.14;41.02;101180.88;5013161;28;20388;-78
2023/03/14 09:02:42;;;;;;;15.60;12.90;;;;;;;11.06;40.32;101172.94;5014623;28;20383;-79
2023/03/14 09:05:08;;;;;;;17.80;12.32;;;;;;;11.10;40.82;101172.44;5012042;28;20407;-77
2023/03/14 09:07:34;;;;;;;14.32;11.15;;;;;;;11.09;40.45;101162.81;5013401;28;20463;-78
2023/03/14 09:09:59;;;;;;;14.37;11.17;;;;;;;11.03;39.24;101150.19;5014287;28;20395;-79
2023/03/14 09:12:25;;;;;;;15.80;11.37;;;;;;;11.18;39.73;101158.38;5013658;28;20400;-77
2023/03/14 09:14:50;;;;;;;14.32;10.85;;;;;;;11.25;39.48;101156.72;5020066;28;20409;-78
2023/03/14 09:17:16;;;;;;;13.17;9.90;;;;;;;11.24;38.83;101151.56;5017312;28;20410;-79
2023/03/14 09:19:41;;;;;;;13.23;10.98;;;;;;;11.07;38.96;101145.38;5014583;28;20452;-76
2023/03/14 09:22:06;;;;;;;14.73;10.97;;;;;;;11.20;39.19;101152.88;5013511;28;20391;-77
2023/03/14 09:24:32;;;;;;;13.57;10.77;;;;;;;11.37;38.98;101159.06;5013813;28;20384;-77
2023/03/14 09:26:57;;;;;;;15.17;10.67;;;;;;;11.51;38.49;101149.63;5011260;28;20416;-78
2023/03/14 09:29:24;;;;;;;13.17;10.60;;;;;;;11.57;38.97;101136.47;5011918;28;20431;-78
2023/03/14 09:31:49;;;;;;;15.07;10.70;;;;;;;11.54;38.63;101128.03;5011513;28;20380;-78
2023/03/14 09:34:15;;;;;;;14.77;11.33;;;;;;;11.50;38.64;101105.47;5012636;28;20453;-79
2023/03/14 09:36:40;;;;;;;14.90;11.20;;;;;;;11.53;38.89;101099.84;5012188;28;20694;-78
2023/03/14 09:39:06;;;;;;;17.47;11.77;;;;;;;11.44;38.81;101094.50;5011811;28;20434;-76
2023/03/14 09:41:39;;;;;;;15.80;11.60;;;;;;;11.48;39.09;101079.91;5012473;28;20387;-78
2023/03/14 09:44:24;;;;;;;14.23;11.60;;;;;;;11.45;38.85;101082.06;5027255;28;20396;-77
2023/03/14 09:46:52;;;;;;;14.15;11.95;;;;;;;11.37;39.06;101076.78;5012116;28;20411;-79
2023/03/14 09:49:28;;;;;;;14.68;11.10;;;;;;;11.44;38.97;101077.75;5013789;28;20391;-77
2023/03/14 09:51:57;;;;;;;14.18;11.10;;;;;;;11.47;39.41;101078.25;5012450;28;20812;-78
2023/03/14 09:54:43;;;;;;;14.95;11.00;;;;;;;11.69;39.50;101080.41;5012451;28;20526;-77
2023/03/14 09:57:15;;;;;;;14.10;10.73;;;;;;;11.88;39.53;101098.59;5010712;28;20396;-78
2023/03/14 09:59:44;;;;;;;13.57;10.93;;;;;;;11.93;39.00;101096.31;5010736;28;20391;-78
2023/03/14 10:02:21;;;;;;;15.82;10.60;;;;;;;11.66;39.15;101082.38;5011156;28;20423;-78
2023/03/14 10:04:49;;;;;;;14.23;10.60;;;;;;;11.79;39.07;101075.72;5012063;28;20565;-78
2023/03/14 10:07:19;;;;;;;14.35;10.50;;;;;;;11.77;39.19;101065.25;5010264;28;20884;-78
2023/03/14 10:09:47;;;;;;;14.65;11.30;;;;;;;11.90;39.38;101059.44;5011050;28;20391;-77
2023/03/14 10:12:13;;;;;;;13.68;10.32;;;;;;;12.09;39.36;101052.09;5011311;28;20490;-80
2023/03/14 10:14:53;;;;;;;13.68;10.40;;;;;;;12.08;39.15;101048.59;5011865;28;20383;-77
2023/03/14 10:17:20;;;;;;;13.80;11.03;;;;;;;12.26;38.92;101055.53;5017160;28;20440;-77
2023/03/14 10:19:59;;;;;;;13.25;9.88;;;;;;;12.32;39.25;101041.56;5031355;28;20372;-77
2023/03/14 10:22:29;;;;;;;13.82;10.10;;;;;;;12.29;38.48;101042.72;5030439;28;20377;-77
2023/03/14 10:24:59;;;;;;;14.65;11.25;;;;;;;12.37;38.97;101034.72;5019710;28;20478;-79
2023/03/14 10:27:34;;;;;;;17.45;10.80;;;;;;;12.54;38.95;101019.50;5013177;28;20395;-77
2023/03/14 10:30:06;;;;;;;12.25;10.30;;;;;;;12.59;39.06;101030.44;5011384;28;20391;-78
2023/03/14 10:32:35;;;;;;;14.35;10.77;;;;;;;12.66;38.88;101017.25;5011230;28;20414;-78
2023/03/14 10:35:21;;;;;;;11.88;10.55;;;;;;;12.58;38.99;101015.47;5011195;28;20475;-78
2023/03/14 10:37:55;;;;;;;15.38;11.63;;;;;;;12.78;39.19;101017.66;5030391;28;20384;-78
2023/03/14 10:40:27;;;;;;;13.70;11.45;;;;;;;12.77;38.66;101006.22;5015530;28;20387;-77
2023/03/14 10:42:55;;;;;;;16.77;10.65;;;;;;;12.68;38.82;101001.94;5014691;28;20453;-79
2023/03/14 10:45:36;;;;;;;13.77;10.57;;;;;;;12.85;38.61;101002.66;5016309;28;20734;-78
2023/03/14 10:48:19;;;;;;;16.92;10.52;;;;;;;12.95;38.98;100992.59;5015960;28;20392;-78
2023/03/14 10:50:55;;;;;;;12.68;10.30;;;;;;;12.95;38.56;100981.97;5015794;28;20376;-77
2023/03/14 10:53:21;;;;;;;11.40;10.13;;;;;;;13.02;38.27;100976.75;5015618;28;20533;-78
2023/03/14 10:55:47;;;;;;;12.98;10.68;;;;;;;13.13;38.11;100968.34;5015115;28;20408;-77
2023/03/14 10:58:23;;;;;;;16.60;11.07;;;;;;;13.29;38.30;100951.38;5030653;28;20376;-78
2023/03/14 11:00:57;;;;;;;11.63;10.20;;;;;;;13.29;38.31;100946.06;5015403;28;20399;-78
2023/03/14 11:03:25;;;;;;;13.48;10.25;;;;;;;13.32;38.12;100939.56;5016642;28;20411;-79
2023/03/14 11:06:06;;;;;;;14.45;10.48;;;;;;;13.21;38.24;100927.50;5014713;28;20971;-77
2023/03/14 11:08:42;;;;;;;17.25;11.15;;;;;;;13.30;38.33;100910.41;5014856;28;20391;-77
2023/03/14 11:11:16;;;;;;;13.40;10.77;;;;;;;13.55;38.17;100908.34;5015800;28;20381;-80
2023/03/14 11:14:07;;;;;;;12.07;9.93;;;;;;;13.51;37.69;100900.91;5016898;28;20380;-79
2023/03/14 11:16:50;;;;;;;15.73;10.27;;;;;;;13.72;37.66;100887.66;5017467;28;20384;-80
2023/03/14 11:19:40;;;;;;;11.55;9.57;;;;;;;13.67;37.58;100882.06;5015500;28;20879;-77